Time;durP1;ratioP1;P1;durP2;ratioP2;P2;SDS_P1;SDS_P2;PMS_P1;PMS_P2;Temp;Humidity;BMP_temperature;BMP_pressure;BME280_temperature;BME280_humidity;BME280_pressure;Samples;Min_cycle;Max_cycle;Signal;HPM_P1;HPM_P2
2021/04/01 00:01:10;;;;;;;24.13;9.63;;;11.90;67.40;;;;;;5106140;28;20382;-77
2021/04/01 00:03:41;;;;;;;19.38;9.35;;;12.00;66.90;;;;;;5090209;28;20366;-77
2021/04/01 00:06:06;;;;;;;24.30;9.57;;;12.00;67.20;;;;;;5090562;28;20370;-77
2021/04/01 00:08:32;;;;;;;17.55;10.05;;;12.00;67.00;;;;;;5089898;28;20378;-77
2021/04/01 00:10:58;;;;;;;20.10;10.63;;;11.90;67.10;;;;;;5090282;28;20382;-77
2021/04/01 00:13:24;;;;;;;23.63;11.40;;;11.90;67.20;;;;;;5090132;28;20472;-77
2021/04/01 00:15:51;;;;;;;24.67;11.07;;;11.90;67.00;;;;;;5090618;28;20448;-77
2021/04/01 00:18:19;;;;;;;18.23;10.40;;;11.90;67.20;;;;;;5093500;28;20453;-77
2021/04/01 00:20:44;;;;;;;20.45;10.95;;;11.90;67.30;;;;;;5094143;28;20542;-77
2021/04/01 00:23:11;;;;;;;19.93;10.63;;;11.80;67.20;;;;;;5075385;28;20461;-77
2021/04/01 00:25:36;;;;;;;23.30;11.32;;;11.70;68.60;;;;;;5094532;28;20523;-77
2021/04/01 00:28:02;;;;;;;27.20;11.57;;;11.90;67.70;;;;;;5093429;28;20453;-77
2021/04/01 00:30:27;;;;;;;23.00;12.13;;;11.80;68.30;;;;;;5093699;28;20469;-77
2021/04/01 00:32:53;;;;;;;23.17;12.10;;;11.80;67.90;;;;;;5094013;28;20527;-77
2021/04/01 00:35:19;;;;;;;22.97;11.77;;;11.60;68.70;;;;;;5093707;28;20401;-77
2021/04/01 00:37:44;;;;;;;22.30;11.40;;;11.60;69.20;;;;;;5075295;28;20719;-77
2021/04/01 00:40:10;;;;;;;24.02;12.75;;;11.80;68.10;;;;;;5093559;28;20382;-77
2021/04/01 00:42:37;;;;;;;22.33;12.77;;;11.90;68.30;;;;;;5093562;28;20374;-77
2021/04/01 00:45:09;;;;;;;28.05;13.93;;;11.80;68.10;;;;;;5093349;28;20381;-77
2021/04/01 00:47:50;;;;;;;25.13;14.70;;;11.70;68.10;;;;;;5093317;28;20370;-77
2021/04/01 00:50:23;;;;;;;25.58;14.07;;;11.60;68.30;;;;;;5093644;28;20378;-77
2021/04/01 00:52:49;;;;;;;27.42;13.57;;;11.60;68.80;;;;;;5075085;28;20842;-77
2021/04/01 00:55:15;;;;;;;22.92;13.73;;;11.60;68.90;;;;;;5093216;28;20494;-77
2021/04/01 00:57:45;;;;;;;28.08;13.88;;;11.60;68.70;;;;;;5092780;28;20397;-76
2021/04/01 01:00:15;;;;;;;26.13;14.73;;;11.60;68.80;;;;;;5075204;28;20421;-77
2021/04/01 01:02:41;;;;;;;29.42;14.50;;;11.60;68.90;;;;;;5093139;28;20378;-77
2021/04/01 01:05:09;;;;;;;33.17;15.00;;;11.40;69.90;;;;;;5093334;28;20447;-77
2021/04/01 01:07:35;;;;;;;27.40;15.35;;;11.50;69.70;;;;;;5092620;28;20370;-77
2021/04/01 01:10:01;;;;;;;24.03;14.70;;;11.40;69.70;;;;;;5075018;28;20854;-77
2021/04/01 01:12:26;;;;;;;24.73;15.35;;;11.50;70.00;;;;;;5074839;28;20772;-77
2021/04/01 01:14:52;;;;;;;30.10;15.32;;;11.40;70.00;;;;;;5093021;28;20876;-77
2021/04/01 01:17:17;;;;;;;29.50;16.17;;;11.40;69.80;;;;;;5074441;28;20436;-77
2021/04/01 01:19:51;;;;;;;27.20;16.37;;;11.40;69.70;;;;;;5092754;28;20370;-77
2021/04/01 01:22:18;;;;;;;27.52;16.90;;;11.40;70.10;;;;;;5093038;28;20398;-77
2021/04/01 01:25:37;;;;;;;29.15;17.85;;;11.40;70.20;;;;;;5092316;28;20922;-77
2021/04/01 01:28:04;;;;;;;30.58;17.60;;;11.40;69.80;;;;;;5089958;28;20874;-77
2021/04/01 01:30:33;;;;;;;32.85;18.13;;;11.40;69.40;;;;;;5092807;28;20766;-77
2021/04/01 01:32:59;;;;;;;30.67;17.85;;;11.30;70.20;;;;;;5092515;28;20385;-77
2021/04/01 01:35:31;;;;;;;31.83;18.17;;;11.30;69.80;;;;;;5074247;28;20438;-76
2021/04/01 01:37:59;;;;;;;31.33;17.67;;;11.30;70.30;;;;;;5074075;28;20965;-77
2021/04/01 01:40:27;;;;;;;34.03;17.45;;;11.40;69.70;;;;;;5092788;28;20374;-77
2021/04/01 01:42:56;;;;;;;34.05;18.15;;;11.50;69.40;;;;;;5092536;28;20757;-77
2021/04/01 01:45:22;;;;;;;33.90;18.45;;;11.40;69.80;;;;;;5073703;28;20386;-77
2021/04/01 01:47:48;;;;;;;32.90;18.13;;;11.40;70.00;;;;;;5073820;28;20764;-77
2021/04/01 01:50:15;;;;;;;33.95;18.25;;;11.40;69.90;;;;;;5091313;28;20373;-77
2021/04/01 01:52:41;;;;;;;29.17;17.52;;;11.00;70.90;;;;;;5074000;28;20374;-77
2021/04/01 01:55:08;;;;;;;33.03;17.45;;;11.20;70.60;;;;;;5092129;28;20405;-77
2021/04/01 01:57:35;;;;;;;34.08;17.83;;;11.30;70.30;;;;;;5073468;28;20481;-77
2021/04/01 02:00:04;;;;;;;35.97;19.30;;;11.30;70.30;;;;;;5073673;28;20467;-77
2021/04/01 02:02:29;;;;;;;33.00;17.05;;;11.20;70.30;;;;;;5073935;28;20378;-77
2021/04/01 02:04:55;;;;;;;35.10;17.03;;;11.20;70.80;;;;;;5092049;28;20378;-77
2021/04/01 02:07:21;;;;;;;33.95;17.25;;;11.40;69.60;;;;;;5091656;28;20378;-77
2021/04/01 02:09:47;;;;;;;38.70;19.03;;;11.30;69.70;;;;;;5092260;28;20857;-77
2021/04/01 02:12:14;;;;;;;36.63;18.65;;;11.20;69.90;;;;;;5073380;28;20863;-77
2021/04/01 02:14:40;;;;;;;33.58;18.17;;;11.00;71.90;;;;;;5091912;28;20540;-77
2021/04/01 02:17:09;;;;;;;32.97;17.55;;;11.10;71.10;;;;;;5091022;28;20378;-77
2021/04/01 02:19:34;;;;;;;32.78;18.25;;;11.30;70.90;;;;;;5091981;28;20843;-77
2021/04/01 02:22:00;;;;;;;34.30;18.50;;;11.20;70.60;;;;;;5073303;28;20421;-77
2021/04/01 02:24:25;;;;;;;35.87;19.53;;;11.20;71.00;;;;;;5073551;28;20915;-77
2021/04/01 02:26:55;;;;;;;36.72;19.85;;;11.30;70.70;;;;;;5090863;28;20722;-77
2021/04/01 02:29:25;;;;;;;37.47;19.45;;;11.20;71.10;;;;;;5091617;28;20698;-77
2021/04/01 02:31:50;;;;;;;32.80;19.17;;;11.20;71.10;;;;;;5091683;28;20370;-77
2021/04/01 02:34:16;;;;;;;39.03;20.93;;;11.20;71.20;;;;;;5091449;28;20702;-77
2021/04/01 02:36:43;;;;;;;34.53;19.35;;;11.00;72.00;;;;;;5091036;28;20973;-77
2021/04/01 02:39:10;;;;;;;37.75;19.85;;;11.00;71.50;;;;;;5072783;28;20393;-77
2021/04/01 02:41:35;;;;;;;38.00;20.05;;;10.90;71.10;;;;;;5091136;28;20457;-77
2021/04/01 02:44:01;;;;;;;39.00;19.45;;;11.00;72.00;;;;;;5091175;28;20457;-77
2021/04/01 02:46:27;;;;;;;34.93;19.17;;;11.00;71.80;;;;;;5091054;28;20809;-77
2021/04/01 02:48:52;;;;;;;34.60;18.37;;;11.10;71.60;;;;;;5090727;28;20370;-77
2021/04/01 02:51:19;;;;;;;35.85;19.98;;;11.10;71.30;;;;;;5072544;28;20382;-77
2021/04/01 02:53:44;;;;;;;34.05;18.20;;;11.00;71.60;;;;;;5091050;28;20381;-77
2021/04/01 02:56:10;;;;;;;38.08;19.73;;;11.00;71.60;;;;;;5091110;28;20390;-77
2021/04/01 02:58:37;;;;;;;37.30;19.53;;;11.00;71.40;;;;;;5090461;28;20401;-77
2021/04/01 03:01:03;;;;;;;35.08;18.88;;;11.00;71.80;;;;;;5090927;28;20783;-77
2021/04/01 03:03:34;;;;;;;35.00;18.85;;;10.90;72.20;;;;;;5091056;28;20491;-77
2021/04/01 03:06:01;;;;;;;35.10;18.80;;;10.90;72.10;;;;;;5090915;28;20439;-77
2021/04/01 03:08:27;;;;;;;33.10;18.50;;;10.90;72.20;;;;;;5090418;28;20388;-77
2021/04/01 03:10:52;;;;;;;30.97;18.10;;;10.90;71.90;;;;;;5072578;28;20379;-77
2021/04/01 03:13:18;;;;;;;36.22;19.75;;;10.80;71.80;;;;;;5090794;28;20393;-77
2021/04/01 03:15:43;;;;;;;33.50;19.07;;;10.90;72.80;;;;;;5090639;28;20390;-77
2021/04/01 03:18:09;;;;;;;35.70;18.93;;;10.80;73.40;;;;;;5090698;28;20382;-77
2021/04/01 03:20:34;;;;;;;38.00;19.48;;;11.00;71.70;;;;;;5072610;28;20403;-77
2021/04/01 03:23:00;;;;;;;36.53;18.80;;;11.00;72.20;;;;;;5072588;28;20472;-77
2021/04/01 03:25:26;;;;;;;37.20;18.67;;;11.00;72.20;;;;;;5090601;28;20745;-77
2021/04/01 03:27:52;;;;;;;34.42;19.23;;;10.90;72.90;;;;;;5090284;28;20427;-77
2021/04/01 03:30:17;;;;;;;32.35;19.17;;;10.90;72.90;;;;;;5072249;28;20386;-77
2021/04/01 03:32:45;;;;;;;33.75;19.05;;;10.80;72.80;;;;;;5090325;28;20370;-77
2021/04/01 03:35:17;;;;;;;34.60;19.08;;;10.90;73.00;;;;;;5090583;28;20410;-77
2021/04/01 03:37:44;;;;;;;36.45;19.83;;;11.10;72.00;;;;;;5088453;28;20370;-77
2021/04/01 03:40:11;;;;;;;31.05;18.88;;;11.00;72.30;;;;;;5090615;28;20374;-77
2021/04/01 03:42:38;;;;;;;34.23;18.40;;;10.90;72.80;;;;;;5090486;28;20842;-76
2021/04/01 03:45:09;;;;;;;33.88;18.92;;;10.90;73.20;;;;;;5090877;28;20434;-77
2021/04/01 03:47:36;;;;;;;39.03;18.70;;;11.00;73.00;;;;;;5090008;28;20453;-77
2021/04/01 03:50:01;;;;;;;35.10;18.90;;;11.10;72.40;;;;;;5090652;28;20378;-77
2021/04/01 03:52:27;;;;;;;37.40;19.95;;;11.10;71.80;;;;;;5075373;28;20384;-77
2021/04/01 03:54:57;;;;;;;38.33;19.27;;;11.00;72.90;;;;;;5076736;28;20804;-77
2021/04/01 03:57:23;;;;;;;42.67;21.98;;;11.10;72.00;;;;;;5094590;28;20406;-76
2021/04/01 03:59:59;;;;;;;37.30;19.03;;;10.80;73.10;;;;;;5076350;28;20404;-77
2021/04/01 04:08:02;;;;;;;36.00;19.73;;;11.10;72.70;;;;;;5094466;28;20374;-77
2021/04/01 04:13:32;;;;;;;39.40;20.10;;;11.10;72.00;;;;;;5055698;28;20397;-77
2021/04/01 04:15:58;;;;;;;36.13;19.20;;;10.90;73.70;;;;;;5076547;28;20455;-76
2021/04/01 04:18:24;;;;;;;36.28;18.77;;;11.10;72.70;;;;;;5093842;28;20435;-76
2021/04/01 04:20:49;;;;;;;37.83;19.07;;;11.10;72.90;;;;;;5094291;28;20370;-77
2021/04/01 04:23:17;;;;;;;33.43;17.87;;;11.20;72.10;;;;;;5094058;28;20370;-77
2021/04/01 04:25:43;;;;;;;37.70;19.40;;;11.20;72.20;;;;;;5094344;28;20417;-77
2021/04/01 04:28:18;;;;;;;39.83;19.27;;;11.10;72.90;;;;;;5093567;28;20798;-77
2021/04/01 04:30:43;;;;;;;36.05;18.67;;;11.10;72.70;;;;;;5094169;28;20384;-77
2021/04/01 04:33:10;;;;;;;34.53;18.20;;;11.10;73.60;;;;;;5093746;28;20449;-76
2021/04/01 04:35:35;;;;;;;39.30;19.70;;;11.10;72.70;;;;;;5075472;28;20440;-77
2021/04/01 04:38:01;;;;;;;34.50;18.58;;;11.10;73.10;;;;;;5094196;28;20385;-77
2021/04/01 04:40:27;;;;;;;34.80;19.47;;;11.10;72.90;;;;;;5093685;28;20366;-77
2021/04/01 04:42:52;;;;;;;37.03;18.43;;;11.10;73.50;;;;;;5093930;28;21053;-78
2021/04/01 04:45:18;;;;;;;39.03;18.50;;;11.10;73.40;;;;;;5093299;28;20469;-77
2021/04/01 04:47:43;;;;;;;36.28;18.80;;;11.10;73.40;;;;;;5093404;28;20405;-76
2021/04/01 04:50:10;;;;;;;35.17;18.97;;;11.10;73.10;;;;;;5093256;28;20383;-77
2021/04/01 04:52:36;;;;;;;37.15;18.60;;;11.10;73.80;;;;;;5075466;28;20374;-77
2021/04/01 04:55:04;;;;;;;40.60;19.45;;;11.10;73.00;;;;;;5075076;28;20406;-77
2021/04/01 05:05:39;;;;;;;42.88;19.63;;;11.10;74.20;;;;;;5093137;28;20864;-77
2021/04/01 05:08:05;;;;;;;38.33;19.90;;;11.00;73.90;;;;;;5092636;28;20373;-77
2021/04/01 05:10:31;;;;;;;42.40;20.65;;;11.10;73.70;;;;;;5074684;28;20433;-77
2021/04/01 05:13:09;;;;;;;39.42;20.50;;;11.00;74.30;;;;;;5092965;28;20719;-77
2021/04/01 05:15:46;;;;;;;43.40;20.60;;;10.90;74.40;;;;;;5092808;28;20463;-77
2021/04/01 05:20:44;;;;;;;48.40;22.33;;;10.90;74.60;;;;;;5092946;28;20382;-77
2021/04/01 05:28:40;;;;;;;48.97;23.65;;;11.00;73.90;;;;;;5092614;28;20738;-77
2021/04/01 05:31:08;;;;;;;53.92;23.75;;;10.90;73.80;;;;;;5074273;28;20863;-77
2021/04/01 05:33:36;;;;;;;57.35;25.65;;;10.80;75.60;;;;;;5074628;28;20860;-77
2021/04/01 05:36:05;;;;;;;61.53;24.80;;;10.80;74.60;;;;;;5092538;28;20413;-77
2021/04/01 05:38:32;;;;;;;67.90;30.63;;;10.80;74.20;;;;;;5073770;28;20394;-77
2021/04/01 05:40:58;;;;;;;60.13;27.50;;;10.80;74.00;;;;;;5092612;28;20727;-77
2021/04/01 05:43:26;;;;;;;60.53;26.83;;;10.80;73.90;;;;;;5073723;28;20378;-77
2021/04/01 05:46:03;;;;;;;65.37;27.17;;;10.80;74.00;;;;;;5074231;28;20458;-77
2021/04/01 05:48:53;;;;;;;68.10;27.67;;;10.80;74.10;;;;;;5091661;28;20378;-77
2021/04/01 05:57:10;;;;;;;57.05;26.10;;;11.00;72.30;;;;;;5091178;28;20432;-77
2021/04/01 06:02:35;;;;;;;58.22;27.20;;;11.10;70.90;;;;;;5092009;28;20374;-77
2021/04/01 06:05:08;;;;;;;66.65;29.75;;;11.20;71.20;;;;;;5092493;28;20780;-77
2021/04/01 06:07:39;;;;;;;62.40;28.30;;;11.10;72.30;;;;;;5073379;28;20421;-77
2021/04/01 06:10:07;;;;;;;57.83;27.20;;;11.10;71.90;;;;;;5091974;28;20374;-77
2021/04/01 06:12:33;;;;;;;59.97;26.92;;;11.10;71.50;;;;;;5073732;28;21066;-78
2021/04/01 06:15:02;;;;;;;64.95;28.65;;;11.20;71.90;;;;;;5091178;28;20444;-76
2021/04/01 06:17:30;;;;;;;54.13;26.63;;;11.10;71.60;;;;;;5073333;28;20519;-77
2021/04/01 06:20:00;;;;;;;61.10;28.13;;;11.10;72.20;;;;;;5090657;28;20432;-77
2021/04/01 06:22:27;;;;;;;66.57;30.13;;;11.00;73.10;;;;;;5073166;28;20378;-77
2021/04/01 06:25:02;;;;;;;63.10;28.90;;;11.10;73.10;;;;;;5088719;28;20382;-76
2021/04/01 06:33:00;;;;;;;70.53;31.90;;;11.20;71.90;;;;;;5090387;28;20776;-76
2021/04/01 06:35:40;;;;;;;71.30;31.05;;;11.20;73.00;;;;;;5072549;28;20764;-76
2021/04/01 06:40:54;;;;;;;67.47;29.65;;;11.90;67.60;;;;;;5090607;28;20409;-76
2021/04/01 06:43:21;;;;;;;60.95;30.33;;;11.90;68.30;;;;;;5090762;28;20427;-75
2021/04/01 06:45:53;;;;;;;76.30;33.63;;;11.90;68.10;;;;;;5090205;28;20965;-76
2021/04/01 06:48:23;;;;;;;73.57;31.57;;;11.90;68.40;;;;;;5090054;28;20402;-76
2021/04/01 06:50:50;;;;;;;72.60;31.48;;;12.30;66.20;;;;;;5090059;28;20381;-76
2021/04/01 06:53:33;;;;;;;70.90;31.57;;;12.50;65.60;;;;;;5072267;28;20394;-76
2021/04/01 06:59:21;;;;;;;69.72;30.88;;;12.60;64.90;;;;;;5089644;28;20409;-76
2021/04/01 07:02:08;;;;;;;75.17;33.27;;;12.80;64.50;;;;;;5071581;28;20844;-76
2021/04/01 07:04:35;;;;;;;73.32;32.60;;;13.10;63.10;;;;;;5089395;28;20397;-76
2021/04/01 07:07:16;;;;;;;81.00;33.22;;;13.30;62.00;;;;;;5089226;28;20406;-76
2021/04/01 07:10:09;;;;;;;77.85;32.88;;;13.20;62.20;;;;;;5089824;28;20374;-76
2021/04/01 07:12:39;;;;;;;78.28;33.83;;;13.10;63.60;;;;;;5089966;28;20387;-76
2021/04/01 07:15:12;;;;;;;79.18;33.78;;;13.20;62.30;;;;;;5089741;28;20393;-77
2021/04/01 07:17:43;;;;;;;79.15;33.50;;;13.10;63.50;;;;;;5070772;28;20386;-77
2021/04/01 07:20:31;;;;;;;83.70;33.87;;;13.40;61.60;;;;;;5089813;28;20382;-78
2021/04/01 07:34:37;;;;;;;87.10;38.05;;;13.80;60.60;;;;;;5089550;28;20386;-77
2021/04/01 07:47:42;;;;;;;82.68;37.50;;;14.60;57.30;;;;;;5089577;28;20870;-80
2021/04/01 07:50:22;;;;;;;99.70;41.10;;;14.40;58.60;;;;;;5089545;28;20425;-79
2021/04/01 07:52:58;;;;;;;99.05;40.20;;;14.50;57.20;;;;;;5071587;28;20390;-79
2021/04/01 08:03:21;;;;;;;94.00;39.90;;;14.80;54.80;;;;;;5089417;28;20408;-79
2021/04/01 08:05:48;;;;;;;99.35;41.45;;;15.00;54.10;;;;;;5071323;28;20393;-79
2021/04/01 08:08:18;;;;;;;102.53;40.22;;;15.00;53.60;;;;;;5088960;28;20727;-78
2021/04/01 08:10:46;;;;;;;103.78;40.83;;;15.10;53.70;;;;;;5071340;28;20382;-78
2021/04/01 08:13:16;;;;;;;95.45;39.92;;;15.20;54.50;;;;;;5070875;28;20895;-78
2021/04/01 08:15:51;;;;;;;94.03;39.88;;;15.30;53.70;;;;;;5089400;28;20447;-79
2021/04/01 08:18:24;;;;;;;98.57;40.42;;;15.30;53.90;;;;;;5070246;28;20388;-79
2021/04/01 08:20:55;;;;;;;96.63;40.35;;;15.40;53.00;;;;;;5089247;28;20366;-78
2021/04/01 08:23:35;;;;;;;94.88;41.08;;;15.50;54.10;;;;;;5071284;28;20434;-78
2021/04/01 08:29:08;;;;;;;100.03;41.87;;;15.70;51.20;;;;;;5088843;28;20468;-77
2021/04/01 08:36:52;;;;;;;109.03;45.08;;;16.10;48.60;;;;;;5089102;28;20410;-77
2021/04/01 08:39:21;;;;;;;115.72;44.65;;;16.10;49.20;;;;;;5074116;28;20393;-77
2021/04/01 08:41:50;;;;;;;107.60;43.33;;;16.00;48.80;;;;;;5074659;28;20409;-76
2021/04/01 08:44:49;;;;;;;109.93;43.35;;;16.10;49.70;;;;;;5092316;28;20435;-76
2021/04/01 08:47:46;;;;;;;110.25;44.67;;;16.30;49.60;;;;;;5074344;28;20789;-77
2021/04/01 08:50:36;;;;;;;109.35;44.28;;;16.50;47.70;;;;;;5074540;28;20401;-76
2021/04/01 08:53:36;;;;;;;107.10;43.95;;;16.90;47.20;;;;;;5077986;28;20437;-76
2021/04/01 08:56:18;;;;;;;111.63;44.28;;;16.70;46.60;;;;;;5092150;28;20790;-76
2021/04/01 08:58:54;;;;;;;116.72;45.85;;;16.90;45.90;;;;;;5073663;28;20390;-77
2021/04/01 09:01:19;;;;;;;115.47;46.20;;;16.90;46.40;;;;;;5092341;28;20390;-77
2021/04/01 09:03:49;;;;;;;119.10;45.70;;;17.10;47.20;;;;;;5092476;28;20394;-76
2021/04/01 09:06:24;;;;;;;113.22;44.03;;;17.30;45.50;;;;;;5092292;28;20442;-77
2021/04/01 09:09:04;;;;;;;113.15;45.13;;;17.30;44.50;;;;;;5091989;28;20385;-77
2021/04/01 09:14:18;;;;;;;116.50;46.20;;;17.50;44.50;;;;;;5092584;28;20429;-76
2021/04/01 09:16:52;;;;;;;116.63;45.50;;;17.80;43.90;;;;;;5091340;28;20731;-76
2021/04/01 09:19:27;;;;;;;100.80;43.15;;;17.90;43.50;;;;;;5073721;28;20390;-77
2021/04/01 09:21:53;;;;;;;117.63;48.30;;;18.30;44.30;;;;;;5091927;28;20378;-75
2021/04/01 09:24:26;;;;;;;109.53;46.53;;;18.00;42.90;;;;;;5091420;28;20461;-77
2021/04/01 09:26:53;;;;;;;109.65;45.63;;;18.10;43.90;;;;;;5091351;28;20420;-77
2021/04/01 09:29:19;;;;;;;110.50;44.38;;;18.20;42.60;;;;;;5073613;28;20382;-78
2021/04/01 09:31:49;;;;;;;110.00;44.78;;;18.00;43.70;;;;;;5073825;28;20895;-76
2021/04/01 09:34:17;;;;;;;118.63;43.30;;;18.00;43.10;;;;;;5073186;28;20378;-76
2021/04/01 09:36:44;;;;;;;105.47;41.00;;;18.10;42.80;;;;;;5073259;28;20750;-77
2021/04/01 09:42:04;;;;;;;97.60;40.60;;;18.40;43.00;;;;;;5091491;28;20739;-77
2021/04/01 09:44:30;;;;;;;93.18;38.13;;;18.80;41.40;;;;;;5073431;28;20515;-77
2021/04/01 09:47:15;;;;;;;110.68;42.92;;;19.30;42.40;;;;;;5090916;28;20418;-77
2021/04/01 09:50:03;;;;;;;106.80;42.88;;;19.10;40.40;;;;;;5090662;28;20440;-76
2021/04/01 09:52:29;;;;;;;102.13;40.67;;;19.00;41.40;;;;;;5091331;28;20380;-78
2021/04/01 09:55:00;;;;;;;101.00;40.47;;;19.00;42.70;;;;;;5091143;28;20781;-76
2021/04/01 09:57:46;;;;;;;98.53;40.53;;;19.10;41.60;;;;;;5072634;28;20402;-76
2021/04/01 10:03:21;;;;;;;91.53;37.63;;;19.30;41.00;;;;;;5034868;28;20547;-76
2021/04/01 10:05:48;;;;;;;90.13;36.50;;;19.40;39.40;;;;;;5072554;28;20391;-76
2021/04/01 10:08:37;;;;;;;90.20;36.05;;;19.30;39.30;;;;;;5090299;28;20385;-76
2021/04/01 10:11:08;;;;;;;95.20;37.90;;;19.40;40.00;;;;;;5070488;28;20796;-78
2021/04/01 10:13:34;;;;;;;89.32;36.72;;;19.70;39.30;;;;;;5078056;28;20482;-76
2021/04/01 10:16:00;;;;;;;90.43;38.30;;;20.10;40.70;;;;;;5090326;28;20965;-77
2021/04/01 10:18:36;;;;;;;94.25;37.65;;;20.20;37.80;;;;;;5071962;28;20390;-76
2021/04/01 10:21:05;;;;;;;94.47;37.20;;;19.70;38.80;;;;;;5090278;28;20913;-76
2021/04/01 10:23:59;;;;;;;94.03;35.30;;;19.40;39.50;;;;;;5072359;28;20719;-76
2021/04/01 10:26:31;;;;;;;90.97;37.03;;;19.40;38.70;;;;;;5071915;28;20394;-78
2021/04/01 10:29:07;;;;;;;93.93;37.40;;;19.50;41.00;;;;;;5090624;28;20385;-78
2021/04/01 10:31:45;;;;;;;98.53;37.35;;;19.90;38.70;;;;;;5072084;28;20401;-77
2021/04/01 10:34:29;;;;;;;100.53;37.80;;;19.80;39.10;;;;;;5072880;28;20382;-77
2021/04/01 10:36:58;;;;;;;91.53;37.28;;;19.60;38.90;;;;;;5089649;28;20409;-78
2021/04/01 10:39:33;;;;;;;97.50;38.05;;;19.70;38.70;;;;;;5072008;28;20398;-78
2021/04/01 10:42:00;;;;;;;89.35;35.85;;;19.30;38.90;;;;;;5090188;28;20380;-77
2021/04/01 10:44:25;;;;;;;95.53;37.50;;;20.20;40.10;;;;;;5089831;28;20386;-77
2021/04/01 10:46:56;;;;;;;98.87;37.57;;;20.40;37.50;;;;;;5071638;28;20386;-77
2021/04/01 10:49:36;;;;;;;90.97;36.43;;;20.20;39.70;;;;;;5090013;28;20449;-77
2021/04/01 10:52:04;;;;;;;88.17;35.80;;;20.30;40.80;;;;;;5090127;28;20382;-77
2021/04/01 10:54:39;;;;;;;91.72;35.47;;;20.10;39.30;;;;;;5071625;28;20471;-76
2021/04/01 10:57:08;;;;;;;95.30;36.83;;;20.50;38.50;;;;;;5089720;28;20906;-76
2021/04/01 10:59:40;;;;;;;90.15;36.33;;;20.30;38.10;;;;;;5070838;28;20469;-77
2021/04/01 11:02:16;;;;;;;94.32;36.78;;;20.50;39.10;;;;;;5088788;28;20432;-77
2021/04/01 11:04:47;;;;;;;85.90;35.00;;;20.50;39.90;;;;;;5089903;28;20383;-76
2021/04/01 11:07:13;;;;;;;81.53;35.10;;;20.30;40.60;;;;;;5089477;28;20843;-77
2021/04/01 11:09:46;;;;;;;85.63;35.15;;;20.30;38.70;;;;;;5090251;28;20401;-77
2021/04/01 11:12:18;;;;;;;87.75;35.28;;;19.90;39.00;;;;;;5090226;28;20385;-76
2021/04/01 11:15:01;;;;;;;86.80;36.40;;;20.40;39.70;;;;;;5090229;28;20384;-76
2021/04/01 11:17:30;;;;;;;89.30;37.13;;;20.10;40.10;;;;;;5089618;28;20378;-76
2021/04/01 11:19:58;;;;;;;90.10;39.10;;;20.30;42.10;;;;;;5090266;28;20424;-76
2021/04/01 11:22:24;;;;;;;96.03;39.05;;;20.60;40.70;;;;;;5071590;28;20794;-77
2021/04/01 11:24:50;;;;;;;92.55;38.42;;;20.50;40.50;;;;;;5072321;28;20470;-77
2021/04/01 11:27:18;;;;;;;83.37;35.23;;;20.80;39.30;;;;;;5088546;28;20394;-74
2021/04/01 11:29:56;;;;;;;83.07;35.53;;;20.40;40.00;;;;;;5089319;28;20374;-75
2021/04/01 11:32:25;;;;;;;84.13;34.43;;;20.00;40.40;;;;;;5069159;28;20379;-76
2021/04/01 11:34:53;;;;;;;78.07;32.10;;;19.90;40.70;;;;;;5089542;28;20414;-76
2021/04/01 11:37:24;;;;;;;74.25;32.08;;;20.10;39.00;;;;;;5089430;28;20418;-76
2021/04/01 11:39:57;;;;;;;79.05;34.28;;;20.30;40.00;;;;;;5071458;28;20389;-76
2021/04/01 11:42:22;;;;;;;80.00;34.33;;;20.30;39.70;;;;;;5089929;28;20377;-76
2021/04/01 11:44:56;;;;;;;93.43;38.20;;;20.60;39.50;;;;;;5071240;28;20878;-76
2021/04/01 11:47:23;;;;;;;92.53;39.00;;;20.30;39.60;;;;;;5089342;28;20390;-75
2021/04/01 11:49:50;;;;;;;92.60;40.28;;;20.50;40.10;;;;;;5071843;28;20402;-76
2021/04/01 11:52:18;;;;;;;87.23;36.97;;;20.30;41.30;;;;;;5071080;28;20390;-76
2021/04/01 11:54:46;;;;;;;86.10;38.90;;;20.60;40.00;;;;;;5089580;28;20417;-76
2021/04/01 11:57:23;;;;;;;83.22;38.35;;;20.10;42.30;;;;;;5088738;28;20889;-76
2021/04/01 12:00:12;;;;;;;81.78;37.42;;;19.90;43.10;;;;;;5071422;28;20477;-75
2021/04/01 12:03:27;;;;;;;83.13;39.88;;;19.90;43.40;;;;;;5071040;28;20738;-76
2021/04/01 12:05:53;;;;;;;80.72;38.75;;;20.20;42.30;;;;;;5089111;28;20885;-76
2021/04/01 12:08:20;;;;;;;79.83;40.53;;;20.30;42.70;;;;;;5088901;28;20417;-76
2021/04/01 12:10:56;;;;;;;86.03;43.28;;;20.40;44.00;;;;;;5070860;28;20382;-77
2021/04/01 12:13:24;;;;;;;79.53;42.58;;;19.90;44.30;;;;;;5092482;28;20378;-77
2021/04/01 12:15:50;;;;;;;81.05;42.10;;;19.80;45.10;;;;;;5093321;28;20409;-76
2021/04/01 12:18:17;;;;;;;86.10;43.25;;;20.00;44.20;;;;;;5093171;28;20382;-76
2021/04/01 12:20:43;;;;;;;82.07;43.00;;;19.80;45.10;;;;;;5092899;28;20462;-76
2021/04/01 12:23:19;;;;;;;82.32;43.92;;;20.30;44.20;;;;;;5093154;28;20374;-76
2021/04/01 12:25:45;;;;;;;87.45;43.78;;;20.10;44.20;;;;;;5075131;28;20838;-76
2021/04/01 12:28:22;;;;;;;84.95;44.70;;;19.60;45.20;;;;;;5092599;28;20464;-76
2021/04/01 12:30:49;;;;;;;88.25;47.55;;;19.90;45.30;;;;;;5074933;28;20390;-77
2021/04/01 12:33:19;;;;;;;95.18;49.78;;;19.70;46.00;;;;;;5093068;28;20420;-77
2021/04/01 12:35:59;;;;;;;93.45;49.10;;;19.90;45.60;;;;;;5092821;28;20723;-76
2021/04/01 12:38:32;;;;;;;100.22;49.20;;;20.00;45.50;;;;;;5090253;28;20390;-76
2021/04/01 12:41:05;;;;;;;95.38;50.22;;;19.60;44.90;;;;;;5092003;28;20382;-76
2021/04/01 12:43:36;;;;;;;94.60;49.38;;;19.80;44.40;;;;;;5074440;28;20430;-76
2021/04/01 12:46:03;;;;;;;91.60;50.17;;;19.70;44.10;;;;;;5074234;28;20481;-77
2021/04/01 12:48:50;;;;;;;101.35;51.60;;;19.70;44.10;;;;;;5092590;28;20388;-76
2021/04/01 12:51:25;;;;;;;107.00;54.67;;;19.10;45.50;;;;;;5074147;28;20394;-77
2021/04/01 12:54:08;;;;;;;105.68;54.90;;;18.70;47.30;;;;;;5074454;28;20397;-76
2021/04/01 12:56:37;;;;;;;105.80;53.65;;;18.80;46.00;;;;;;5091930;28;20413;-77
2021/04/01 12:59:05;;;;;;;100.95;51.67;;;18.90;47.80;;;;;;5074235;28;20382;-77
2021/04/01 13:04:26;;;;;;;91.65;46.50;;;18.50;46.50;;;;;;5078640;28;20421;-77
2021/04/01 13:12:15;;;;;;;76.85;40.13;;;18.10;46.10;;;;;;5062450;28;20412;-77
2021/04/01 13:14:42;;;;;;;72.40;37.63;;;18.30;45.40;;;;;;5091976;28;20435;-76
2021/04/01 13:17:08;;;;;;;69.73;34.57;;;18.60;46.70;;;;;;5073762;28;21212;-77
2021/04/01 13:19:34;;;;;;;63.28;32.42;;;18.30;46.10;;;;;;5092195;28;20408;-77
2021/04/01 13:24:37;;;;;;;59.67;29.67;;;18.70;44.80;;;;;;5090684;28;20469;-77
2021/04/01 13:27:12;;;;;;;52.40;27.27;;;18.80;47.60;;;;;;5073305;28;20519;-77
2021/04/01 13:29:41;;;;;;;53.15;26.80;;;18.50;45.40;;;;;;5074182;28;20785;-76
2021/04/01 13:32:23;;;;;;;54.88;25.80;;;18.30;46.50;;;;;;5091882;28;21083;-77
2021/04/01 13:34:54;;;;;;;49.00;24.43;;;18.20;45.30;;;;;;5073838;28;20390;-77
2021/04/01 13:40:03;;;;;;;39.25;19.35;;;18.20;45.30;;;;;;5091937;28;20390;-76
2021/04/01 13:42:32;;;;;;;37.92;19.30;;;18.30;46.00;;;;;;5074122;28;20742;-77
2021/04/01 13:45:04;;;;;;;33.93;18.20;;;18.60;43.80;;;;;;5091588;28;20385;-76
2021/04/01 13:47:29;;;;;;;32.28;17.10;;;18.40;44.10;;;;;;5091698;28;20375;-77
2021/04/01 13:49:57;;;;;;;35.20;17.20;;;18.10;44.20;;;;;;5091388;28;20389;-77
2021/04/01 13:52:28;;;;;;;33.83;17.80;;;18.40;44.30;;;;;;5091822;28;20468;-77
2021/04/01 13:55:08;;;;;;;30.65;16.67;;;18.40;45.50;;;;;;5091586;28;20785;-77
2021/04/01 13:58:13;;;;;;;30.88;16.40;;;18.00;46.90;;;;;;5072755;28;20874;-77
2021/04/01 14:09:22;;;;;;;23.80;11.23;;;18.30;47.40;;;;;;5090890;28;20413;-77
2021/04/01 14:11:48;;;;;;;19.80;10.60;;;18.10;47.70;;;;;;5072504;28;20382;-77
2021/04/01 14:14:14;;;;;;;21.83;9.15;;;18.20;47.90;;;;;;5073256;28;20880;-77
2021/04/01 14:16:41;;;;;;;19.40;8.60;;;18.20;47.60;;;;;;5090132;28;20394;-77
2021/04/01 14:19:08;;;;;;;19.40;7.13;;;18.50;46.90;;;;;;5090773;28;20471;-77
2021/04/01 14:21:34;;;;;;;19.42;7.07;;;17.90;48.90;;;;;;5090799;28;20406;-77
2021/04/01 14:24:15;;;;;;;19.60;6.35;;;18.20;47.10;;;;;;5072967;28;20643;-76
2021/04/01 14:26:46;;;;;;;15.80;5.17;;;18.30;46.90;;;;;;5089790;28;20462;-77
2021/04/01 14:29:13;;;;;;;14.27;4.88;;;18.40;46.80;;;;;;5072834;28;20396;-76
2021/04/01 14:31:39;;;;;;;36.50;5.75;;;17.80;47.20;;;;;;5072680;28;20834;-77
2021/04/01 14:34:05;;;;;;;20.17;4.80;;;17.80;48.40;;;;;;5090489;28;20389;-77
2021/04/01 14:36:32;;;;;;;16.38;5.22;;;17.90;50.60;;;;;;5071332;28;20429;-77